Seasurfer — 9HA4521 — position and weather

sailwx.info

Track history (hours):
 
Tides and Currents Weather Stations Pressure Air Temp Water Temp Dewpoint Dewpoint Depression Visibility Wind Speed Wind Dir Waves Ship Positions

Seasurfer

Last reported at 2018-Jan-12 14:46 UTC. Time now 2018-Jan-23 07:59 UTC.
Position N 38°52' W 075°07'.
Warning: this ship's position is 10 days out of date.

Length 180 m; draft 7.3 m.

Type: Ship (hazmat cat D). MMSI: 248128000.

Date/timePositionNaut miles runAvg speedWind from/ knotsBaromVisibWave heightAir tempDewpointWater temp
2018-Jan-12 14:46N 38°52' W 075°07'37 8.3
2018-Jan-12 10:20N 38°44' W 074°21'916.2
2018-Jan-12 09:47N 38°40' W 074°10'1016.3
2018-Jan-12 09:10N 38°36' W 073°58'516.3
2018-Jan-12 08:51N 38°34' W 073°52'616.3
2018-Jan-12 08:29N 38°32' W 073°45'  
2018-Jan-06 08:31N 35°57' W 033°09'016.3
2018-Jan-06 08:30N 35°57' W 033°09'35015.4
2018-Jan-05 09:49N 35°57' W 025°57'515.6
2018-Jan-05 09:31N 35°57' W 025°51'815.3
2018-Jan-05 08:58N 35°57' W 025°41'915.4
2018-Jan-05 08:24N 35°57' W 025°30'615.3
2018-Jan-05 08:01N 35°57' W 025°23'815.3
2018-Jan-05 07:30N 35°57' W 025°13'815.4
2018-Jan-05 07:00N 35°57' W 025°04'815.4
2018-Jan-05 06:30N 35°57' W 024°54'815.1
2018-Jan-05 06:01N 35°57' W 024°45'815.4
2018-Jan-05 05:31N 35°57' W 024°35'815.2
2018-Jan-05 05:00N 35°57' W 024°26'815.3
2018-Jan-05 04:30N 35°57' W 024°16'39315.4
2018-Jan-04 02:59N 35°58' W 016°10'2515.7
2018-Jan-04 01:24N 35°58' W 015°40'615.6
2018-Jan-04 01:00N 35°58' W 015°32'815.7
2018-Jan-04 00:30N 35°57' W 015°23'2915.6
2018-Jan-03 22:39N 35°57' W 014°47'215.5
2018-Jan-03 22:30N 35°57' W 014°44'15116.0
2018-Jan-03 13:03N 35°58' W 011°38'115.6
2018-Jan-03 13:00N 35°58' W 011°37'29215.5
2018-Jan-02 18:12N 35°58' W 005°36'312.4
2018-Jan-02 17:57N 35°59' W 005°32'612.3
2018-Jan-02 17:28N 36°01' W 005°25'511.7
2018-Jan-02 17:00N 36°02' W 005°19'5 9.5
2018-Jan-02 16:30N 36°03' W 005°13'  
Track history (hours):
 
Tides and Currents Weather Stations Pressure Air Temp Water Temp Dewpoint Dewpoint Depression Visibility Wind Speed Wind Dir Waves Ship Positions

Seasurfer

Last reported at 2018-Jan-12 14:46 UTC. Time now 2018-Jan-23 07:59 UTC.
Position N 38°52' W 075°07'.
Warning: this ship's position is 10 days out of date.

Length 180 m; draft 7.3 m.

Type: Ship (hazmat cat D). MMSI: 248128000.

Date/timePositionNaut miles runAvg speedWind from/ knotsBaromVisibWave heightAir tempDewpointWater temp
2018-Jan-12 14:46N 38°52' W 075°07'37 8.3
2018-Jan-12 10:20N 38°44' W 074°21'916.2
2018-Jan-12 09:47N 38°40' W 074°10'1016.3
2018-Jan-12 09:10N 38°36' W 073°58'516.3
2018-Jan-12 08:51N 38°34' W 073°52'616.3
2018-Jan-12 08:29N 38°32' W 073°45'  
2018-Jan-06 08:31N 35°57' W 033°09'016.3
2018-Jan-06 08:30N 35°57' W 033°09'35015.4
2018-Jan-05 09:49N 35°57' W 025°57'515.6
2018-Jan-05 09:31N 35°57' W 025°51'815.3
2018-Jan-05 08:58N 35°57' W 025°41'915.4
2018-Jan-05 08:24N 35°57' W 025°30'615.3
2018-Jan-05 08:01N 35°57' W 025°23'815.3
2018-Jan-05 07:30N 35°57' W 025°13'815.4
2018-Jan-05 07:00N 35°57' W 025°04'815.4
2018-Jan-05 06:30N 35°57' W 024°54'815.1
2018-Jan-05 06:01N 35°57' W 024°45'815.4
2018-Jan-05 05:31N 35°57' W 024°35'815.2
2018-Jan-05 05:00N 35°57' W 024°26'815.3
2018-Jan-05 04:30N 35°57' W 024°16'39315.4
2018-Jan-04 02:59N 35°58' W 016°10'2515.7
2018-Jan-04 01:24N 35°58' W 015°40'615.6
2018-Jan-04 01:00N 35°58' W 015°32'815.7
2018-Jan-04 00:30N 35°57' W 015°23'2915.6
2018-Jan-03 22:39N 35°57' W 014°47'215.5
2018-Jan-03 22:30N 35°57' W 014°44'15116.0
2018-Jan-03 13:03N 35°58' W 011°38'115.6
2018-Jan-03 13:00N 35°58' W 011°37'29215.5
2018-Jan-02 18:12N 35°58' W 005°36'312.4
2018-Jan-02 17:57N 35°59' W 005°32'612.3
2018-Jan-02 17:28N 36°01' W 005°25'511.7
2018-Jan-02 17:00N 36°02' W 005°19'5 9.5
2018-Jan-02 16:30N 36°03' W 005°13'  

Dump ship's entire track history